Time;durP1;ratioP1;P1;durP2;ratioP2;P2;SDS_P1;SDS_P2;PMS_P1;PMS_P2;Temp;Humidity;BMP_temperature;BMP_pressure;BME280_temperature;BME280_humidity;BME280_pressure;Samples;Min_cycle;Max_cycle;Signal;HPM_P1;HPM_P2
2023/12/23 00:02:17;;;;;;;6.63;2.37;;;2.30;92.90;;;;;;6217059;23;20156;-86
2023/12/23 00:04:45;;;;;;;7.40;2.33;;;2.30;92.40;;;;;;6214973;23;20192;-86
2023/12/23 00:07:18;;;;;;;6.63;2.50;;;2.40;92.20;;;;;;6229944;22;20294;-90
2023/12/23 00:09:52;;;;;;;4.33;2.20;;;2.50;91.70;;;;;;6236824;22;20153;-84
2023/12/23 00:12:22;;;;;;;7.10;2.20;;;2.40;91.70;;;;;;6195499;23;20158;-85
2023/12/23 00:14:56;;;;;;;4.63;2.30;;;2.70;91.50;;;;;;6234962;22;20176;-86
2023/12/23 00:17:26;;;;;;;4.20;1.67;;;2.40;90.90;;;;;;6198024;22;20162;-88
2023/12/23 00:19:56;;;;;;;4.77;2.40;;;2.40;90.90;;;;;;6234102;22;20190;-87
2023/12/23 00:22:30;;;;;;;4.57;2.17;;;2.40;91.70;;;;;;6221277;22;20181;-86
2023/12/23 00:25:02;;;;;;;5.17;2.47;;;2.40;90.40;;;;;;6178386;23;20205;-84
2023/12/23 00:27:32;;;;;;;5.23;2.20;;;2.40;90.60;;;;;;6228307;23;20173;-88
2023/12/23 00:30:07;;;;;;;6.17;2.43;;;2.70;90.50;;;;;;6220369;23;20386;-87
2023/12/23 00:32:39;;;;;;;11.03;2.97;;;2.40;90.50;;;;;;6216421;23;20681;-86
2023/12/23 00:35:11;;;;;;;6.80;2.70;;;2.50;90.60;;;;;;6226378;23;20155;-88
2023/12/23 00:37:47;;;;;;;9.27;2.90;;;2.40;90.10;;;;;;6223858;23;20210;-85
2023/12/23 00:40:21;;;;;;;5.57;2.10;;;2.50;90.10;;;;;;6187039;23;20342;-88
2023/12/23 00:42:53;;;;;;;5.67;2.70;;;2.40;90.10;;;;;;6232107;23;20198;-86
2023/12/23 00:45:22;;;;;;;5.27;2.10;;;2.40;90.50;;;;;;6220134;23;20151;-85
2023/12/23 00:47:52;;;;;;;6.10;2.30;;;2.40;88.90;;;;;;6209882;23;20623;-87
2023/12/23 00:50:27;;;;;;;5.27;2.10;;;2.40;90.30;;;;;;6212003;23;20177;-88
2023/12/23 00:53:02;;;;;;;4.87;2.13;;;2.40;90.00;;;;;;6189394;23;20241;-86
2023/12/23 00:55:32;;;;;;;4.53;2.17;;;2.50;90.00;;;;;;6222924;23;20208;-86
2023/12/23 00:58:05;;;;;;;8.03;2.47;;;2.40;90.30;;;;;;6217524;23;20173;-87
2023/12/23 01:00:34;;;;;;;4.07;1.93;;;2.40;89.90;;;;;;6221762;23;20263;-85
2023/12/23 01:03:03;;;;;;;5.63;2.40;;;2.40;88.30;;;;;;6223501;23;20158;-86
2023/12/23 01:05:32;;;;;;;5.07;2.03;;;2.40;88.90;;;;;;6226958;23;20159;-87
2023/12/23 01:08:01;;;;;;;5.67;2.30;;;2.40;89.20;;;;;;6218202;23;20547;-86
2023/12/23 01:10:41;;;;;;;6.77;2.40;;;2.40;89.80;;;;;;6222547;23;20189;-84
2023/12/23 01:13:14;;;;;;;5.83;2.20;;;2.30;90.00;;;;;;6187986;23;20188;-86
2023/12/23 01:15:42;;;;;;;6.23;2.33;;;2.30;90.40;;;;;;6214441;23;20256;-85
2023/12/23 01:18:18;;;;;;;5.13;2.30;;;2.30;89.60;;;;;;6218190;23;20165;-85
2023/12/23 01:20:47;;;;;;;6.63;2.03;;;2.30;88.80;;;;;;6216607;23;20210;-87
2023/12/23 01:23:17;;;;;;;5.77;2.33;;;2.30;88.60;;;;;;6217825;23;20560;-86
2023/12/23 01:25:54;;;;;;;6.77;2.23;;;2.20;88.60;;;;;;6212330;23;20162;-84
2023/12/23 01:28:29;;;;;;;6.53;2.00;;;2.30;88.00;;;;;;6209448;23;20189;-88
2023/12/23 01:31:18;;;;;;;5.00;1.83;;;2.20;90.30;;;;;;6210585;23;20173;-87
2023/12/23 01:33:47;;;;;;;4.60;2.30;;;2.20;89.40;;;;;;6187625;23;20174;-87
2023/12/23 01:36:17;;;;;;;5.73;2.27;;;2.10;89.00;;;;;;6212104;23;20185;-83
2023/12/23 01:38:46;;;;;;;4.87;2.00;;;2.10;89.70;;;;;;6208207;23;20155;-86
2023/12/23 01:41:18;;;;;;;5.73;2.07;;;2.10;89.40;;;;;;6213992;23;20817;-87
2023/12/23 01:43:51;;;;;;;4.33;2.00;;;2.10;90.00;;;;;;6176766;23;20530;-85
2023/12/23 01:46:33;;;;;;;8.10;2.30;;;2.00;90.30;;;;;;6212893;23;20170;-87
2023/12/23 01:49:03;;;;;;;4.77;1.87;;;2.10;89.40;;;;;;6182774;23;20258;-85
2023/12/23 01:51:32;;;;;;;5.57;2.20;;;2.20;90.00;;;;;;6184895;23;21023;-84
2023/12/23 01:54:05;;;;;;;4.27;1.87;;;2.10;90.40;;;;;;6183139;23;20171;-87
2023/12/23 01:56:42;;;;;;;2.60;1.70;;;2.10;89.40;;;;;;6144380;23;20177;-85
2023/12/23 01:59:14;;;;;;;4.27;1.83;;;1.90;89.10;;;;;;6185685;23;20159;-86
2023/12/23 02:01:46;;;;;;;3.97;2.03;;;2.10;89.60;;;;;;6179417;23;20476;-86
2023/12/23 02:04:23;;;;;;;6.90;2.60;;;2.10;90.20;;;;;;6181500;23;20190;-87
2023/12/23 02:06:52;;;;;;;4.80;1.80;;;2.10;89.60;;;;;;6183629;23;20193;-88
2023/12/23 02:09:21;;;;;;;5.80;1.73;;;2.10;89.80;;;;;;6186005;23;20165;-85
2023/12/23 02:12:00;;;;;;;5.83;2.13;;;2.10;89.80;;;;;;6152161;23;20190;-85
2023/12/23 02:14:37;;;;;;;4.10;1.80;;;2.20;89.50;;;;;;6190718;23;20153;-83
2023/12/23 02:17:09;;;;;;;6.10;1.77;;;2.00;90.30;;;;;;6151630;23;20209;-84
2023/12/23 02:19:39;;;;;;;4.00;1.63;;;2.00;90.00;;;;;;6182327;23;20588;-84
2023/12/23 02:22:38;;;;;;;4.30;1.97;;;2.10;89.90;;;;;;6183394;23;20587;-87
2023/12/23 02:25:08;;;;;;;7.50;2.13;;;2.00;90.40;;;;;;6185104;23;20171;-84
2023/12/23 02:27:50;;;;;;;5.30;2.17;;;2.00;89.90;;;;;;6146470;23;20591;-88
2023/12/23 02:30:41;;;;;;;7.87;2.20;;;2.00;89.90;;;;;;6151650;23;20182;-86
2023/12/23 02:33:12;;;;;;;8.57;1.93;;;2.00;90.30;;;;;;6184961;23;20174;-86
2023/12/23 02:35:45;;;;;;;5.13;1.93;;;1.90;90.30;;;;;;6186981;23;20211;-87
2023/12/23 02:38:16;;;;;;;7.30;1.80;;;2.00;90.10;;;;;;6191772;23;20245;-86
2023/12/23 02:40:48;;;;;;;3.60;2.10;;;1.90;90.50;;;;;;6201896;23;20178;-87
2023/12/23 02:43:24;;;;;;;5.47;1.83;;;2.00;90.30;;;;;;6205620;23;20335;-86
2023/12/23 02:45:57;;;;;;;4.70;1.90;;;1.90;90.40;;;;;;6187309;23;20201;-87
2023/12/23 02:48:26;;;;;;;7.70;2.13;;;1.90;90.30;;;;;;6214752;23;20180;-84
2023/12/23 02:51:01;;;;;;;4.50;2.13;;;2.00;91.00;;;;;;6216531;23;20163;-87
2023/12/23 02:53:33;;;;;;;7.57;2.00;;;1.90;90.70;;;;;;6217918;23;20191;-85
2023/12/23 02:56:07;;;;;;;3.33;1.90;;;2.00;90.70;;;;;;6179586;23;20180;-85
2023/12/23 02:58:36;;;;;;;4.03;1.60;;;1.90;90.30;;;;;;6217591;23;20902;-85
2023/12/23 03:01:21;;;;;;;3.07;1.83;;;1.90;90.90;;;;;;6229368;22;20176;-86
2023/12/23 03:03:50;;;;;;;4.47;1.90;;;1.90;90.40;;;;;;6189246;23;20180;-86
2023/12/23 03:06:20;;;;;;;5.03;1.87;;;2.00;90.90;;;;;;6189339;23;20187;-85
2023/12/23 03:09:00;;;;;;;8.43;1.87;;;1.90;91.30;;;;;;6226748;23;20165;-83
2023/12/23 03:11:29;;;;;;;5.43;1.90;;;1.90;90.80;;;;;;6230674;23;20263;-85
2023/12/23 03:14:08;;;;;;;3.90;1.57;;;1.90;91.00;;;;;;6191368;23;20183;-85
2023/12/23 03:16:40;;;;;;;4.10;1.83;;;2.00;90.70;;;;;;6224042;23;20185;-86
2023/12/23 03:19:11;;;;;;;9.23;1.93;;;2.00;90.80;;;;;;6219986;23;20354;-83
2023/12/23 03:21:48;;;;;;;3.83;1.80;;;2.00;91.20;;;;;;6182376;23;20201;-89
2023/12/23 03:24:19;;;;;;;5.60;1.60;;;2.00;90.80;;;;;;6235393;22;20493;-89
2023/12/23 03:26:57;;;;;;;5.07;1.60;;;2.00;90.70;;;;;;6196804;23;20174;-87
2023/12/23 03:29:29;;;;;;;7.07;1.57;;;2.00;91.10;;;;;;6236823;22;20491;-88
2023/12/23 03:32:02;;;;;;;3.07;1.97;;;1.90;90.90;;;;;;6236387;22;20145;-86
2023/12/23 03:34:37;;;;;;;8.10;2.17;;;2.00;91.30;;;;;;6233093;22;20165;-85
2023/12/23 03:37:07;;;;;;;5.73;1.63;;;1.90;91.10;;;;;;6225699;23;20163;-86
2023/12/23 03:39:47;;;;;;;6.13;1.77;;;1.90;91.10;;;;;;6231123;22;20315;-88
2023/12/23 03:42:26;;;;;;;2.83;1.80;;;1.90;91.00;;;;;;6227287;22;20197;-85
2023/12/23 03:45:00;;;;;;;4.07;1.80;;;1.90;91.60;;;;;;6217467;23;20642;-88
2023/12/23 03:47:29;;;;;;;4.20;1.60;;;1.90;91.80;;;;;;6218786;23;20223;-88
2023/12/23 03:49:58;;;;;;;4.23;1.93;;;1.90;91.70;;;;;;6186393;23;20625;-87
2023/12/23 03:52:36;;;;;;;3.23;1.57;;;1.90;91.90;;;;;;6184954;23;20237;-87
2023/12/23 03:55:10;;;;;;;6.40;2.10;;;1.90;91.80;;;;;;6225449;23;20524;-84
2023/12/23 03:57:40;;;;;;;5.37;2.00;;;2.10;91.50;;;;;;6218847;23;20590;-84
2023/12/23 04:00:10;;;;;;;6.17;1.93;;;1.80;92.60;;;;;;6219132;23;20761;-87
2023/12/23 04:02:48;;;;;;;3.87;1.70;;;1.90;92.50;;;;;;6214015;23;20219;-88
2023/12/23 04:05:19;;;;;;;4.60;2.03;;;1.80;92.50;;;;;;6216481;23;20476;-85
2023/12/23 04:07:52;;;;;;;5.17;1.80;;;1.80;92.00;;;;;;6177779;23;20226;-88
2023/12/23 04:10:26;;;;;;;8.30;1.80;;;1.80;92.30;;;;;;6179620;23;20180;-85
2023/12/23 04:13:04;;;;;;;4.97;1.90;;;1.80;92.70;;;;;;6179458;23;20279;-85
2023/12/23 04:15:33;;;;;;;5.10;2.37;;;1.80;92.90;;;;;;6214035;23;20156;-84
2023/12/23 04:18:07;;;;;;;5.30;1.70;;;1.70;92.40;;;;;;6220225;23;20208;-86
2023/12/23 04:20:36;;;;;;;5.03;1.73;;;1.80;92.90;;;;;;6222145;23;20454;-89
2023/12/23 04:23:08;;;;;;;5.57;1.87;;;1.90;92.20;;;;;;6195059;23;20202;-85
2023/12/23 04:25:39;;;;;;;3.10;1.63;;;1.80;92.80;;;;;;6221641;23;20369;-86
2023/12/23 04:28:15;;;;;;;4.27;1.53;;;1.80;92.30;;;;;;6215592;23;21023;-87
2023/12/23 04:30:56;;;;;;;4.83;1.70;;;1.80;92.20;;;;;;6215398;23;20160;-86
2023/12/23 04:33:29;;;;;;;5.17;1.80;;;1.80;92.00;;;;;;6216665;23;20208;-87
2023/12/23 04:35:59;;;;;;;3.47;1.53;;;1.70;92.40;;;;;;6219364;23;20162;-87
2023/12/23 04:38:31;;;;;;;4.53;1.90;;;1.70;92.80;;;;;;6178912;23;20287;-86
2023/12/23 04:41:03;;;;;;;3.90;1.60;;;1.90;92.40;;;;;;6210188;23;20161;-89
2023/12/23 04:43:33;;;;;;;7.77;2.13;;;1.70;92.50;;;;;;6210755;23;20166;-86
2023/12/23 04:46:04;;;;;;;3.97;1.53;;;1.70;92.20;;;;;;6202865;23;20169;-84
2023/12/23 04:48:39;;;;;;;2.33;1.37;;;1.70;92.80;;;;;;6217062;23;20211;-85
2023/12/23 04:51:08;;;;;;;4.93;1.50;;;1.60;92.50;;;;;;6219593;23;20168;-86
2023/12/23 04:53:43;;;;;;;5.57;1.80;;;1.50;92.90;;;;;;6221187;23;20161;-87
2023/12/23 04:56:18;;;;;;;4.77;2.10;;;1.50;93.30;;;;;;6223965;23;20193;-86
2023/12/23 04:58:51;;;;;;;6.07;1.70;;;1.50;93.80;;;;;;6180998;23;20175;-86
2023/12/23 05:01:20;;;;;;;3.73;1.50;;;1.40;94.40;;;;;;6223224;23;20168;-85
2023/12/23 05:03:54;;;;;;;3.87;1.20;;;1.30;94.30;;;;;;6217309;23;20159;-87
2023/12/23 05:06:24;;;;;;;6.53;1.70;;;1.30;94.60;;;;;;6223092;23;20188;-85
2023/12/23 05:08:53;;;;;;;4.03;1.70;;;1.40;94.50;;;;;;6190990;23;20241;-85
2023/12/23 05:11:23;;;;;;;6.30;1.67;;;1.30;95.00;;;;;;6217932;23;20197;-84
2023/12/23 05:13:54;;;;;;;3.70;1.70;;;1.30;94.40;;;;;;6232757;22;20247;-86
2023/12/23 05:16:28;;;;;;;6.10;2.07;;;1.40;94.70;;;;;;6234405;22;20229;-88
2023/12/23 05:19:00;;;;;;;6.43;2.10;;;1.50;94.40;;;;;;6233477;22;20179;-85
2023/12/23 05:21:31;;;;;;;3.83;1.30;;;1.40;94.30;;;;;;6182769;22;20200;-87
2023/12/23 05:24:03;;;;;;;6.07;1.50;;;1.40;94.90;;;;;;6221456;22;20158;-84
2023/12/23 05:26:46;;;;;;;4.33;1.70;;;1.20;94.70;;;;;;6218530;23;20186;-86
2023/12/23 05:29:22;;;;;;;4.07;1.77;;;1.40;93.80;;;;;;6219988;23;20182;-84
2023/12/23 05:31:54;;;;;;;3.03;1.40;;;1.30;94.20;;;;;;6217972;23;20354;-86
2023/12/23 05:34:23;;;;;;;5.23;1.63;;;1.30;94.30;;;;;;6233509;22;20167;-85
2023/12/23 05:36:52;;;;;;;2.63;1.40;;;1.30;94.00;;;;;;6197006;22;20391;-87
2023/12/23 05:39:24;;;;;;;5.63;1.73;;;1.40;93.30;;;;;;6236161;22;20206;-85
2023/12/23 05:41:54;;;;;;;3.90;1.30;;;1.40;92.90;;;;;;6222747;22;20506;-87
2023/12/23 05:44:26;;;;;;;3.30;1.40;;;1.40;92.70;;;;;;6210372;23;20166;-84
2023/12/23 05:47:12;;;;;;;3.67;1.77;;;1.30;92.90;;;;;;6208679;23;20539;-85
2023/12/23 05:49:41;;;;;;;3.57;1.50;;;1.30;92.10;;;;;;6213648;23;20214;-85
2023/12/23 05:52:31;;;;;;;1.37;0.87;;;1.30;91.80;;;;;;6211359;23;20168;-89
2023/12/23 05:55:01;;;;;;;5.83;1.87;;;1.30;91.70;;;;;;6191941;23;20178;-86
2023/12/23 05:57:37;;;;;;;6.27;1.77;;;1.30;92.40;;;;;;6175426;23;20179;-84
2023/12/23 06:00:10;;;;;;;5.33;1.40;;;1.30;91.80;;;;;;6173006;23;20197;-85
2023/12/23 06:02:41;;;;;;;2.23;0.90;;;1.30;92.20;;;;;;6211673;23;20198;-86
2023/12/23 06:05:19;;;;;;;4.73;1.97;;;1.20;91.60;;;;;;6209715;23;20589;-85
2023/12/23 06:07:52;;;;;;;6.00;1.73;;;1.30;92.20;;;;;;6212274;23;20202;-86
2023/12/23 06:10:22;;;;;;;3.43;1.30;;;1.20;91.70;;;;;;6179341;23;20175;-85
2023/12/23 06:12:58;;;;;;;2.27;1.30;;;1.20;92.00;;;;;;6219128;23;20163;-85
2023/12/23 06:15:32;;;;;;;2.57;1.10;;;1.10;92.50;;;;;;6188561;23;20175;-85
2023/12/23 06:18:03;;;;;;;6.93;1.87;;;1.10;92.60;;;;;;6200879;23;20775;-86
2023/12/23 06:21:01;;;;;;;5.23;1.40;;;1.20;93.60;;;;;;6218968;23;20225;-84
2023/12/23 06:23:38;;;;;;;3.27;1.50;;;1.10;92.40;;;;;;6222994;23;20593;-85
2023/12/23 06:26:11;;;;;;;4.47;1.70;;;1.10;92.00;;;;;;6217137;23;20450;-84
2023/12/23 06:28:45;;;;;;;4.93;1.40;;;1.20;92.30;;;;;;6220128;23;20167;-87
2023/12/23 06:31:27;;;;;;;3.10;1.10;;;1.10;92.30;;;;;;6224103;23;20163;-84
2023/12/23 06:33:55;;;;;;;4.20;1.37;;;1.00;92.60;;;;;;6226911;23;20187;-86
2023/12/23 06:36:54;;;;;;;6.80;1.50;;;1.10;91.70;;;;;;6224597;23;20180;-85
2023/12/23 06:39:24;;;;;;;4.33;1.37;;;1.20;92.10;;;;;;6207907;23;20254;-86
2023/12/23 06:41:56;;;;;;;4.87;1.50;;;1.20;92.10;;;;;;6227909;23;20166;-88
2023/12/23 06:44:27;;;;;;;3.53;1.63;;;1.40;91.70;;;;;;6179470;23;20872;-86
2023/12/23 06:47:00;;;;;;;8.77;2.07;;;1.20;92.30;;;;;;6211734;23;20168;-85
2023/12/23 06:49:29;;;;;;;5.63;2.00;;;1.40;92.50;;;;;;6214291;23;20326;-85
2023/12/23 06:51:58;;;;;;;2.23;1.37;;;1.30;92.10;;;;;;6177947;23;20180;-89
2023/12/23 06:54:36;;;;;;;5.07;1.30;;;1.50;91.50;;;;;;6212677;23;20450;-85
2023/12/23 06:57:19;;;;;;;6.70;1.90;;;1.40;91.40;;;;;;6192506;23;20250;-85
2023/12/23 06:59:49;;;;;;;4.73;1.80;;;1.40;91.60;;;;;;6237586;22;20182;-86
2023/12/23 07:02:20;;;;;;;3.03;1.27;;;1.40;91.20;;;;;;6236107;22;20187;-85
2023/12/23 07:04:55;;;;;;;3.40;1.47;;;1.40;91.70;;;;;;6237867;22;20164;-87
2023/12/23 07:07:25;;;;;;;4.37;1.40;;;1.40;91.50;;;;;;6229906;22;20201;-86
2023/12/23 07:09:58;;;;;;;7.47;2.30;;;1.20;91.80;;;;;;6233430;22;20489;-85
2023/12/23 07:12:35;;;;;;;4.97;1.63;;;1.50;91.70;;;;;;6233193;22;20198;-85
2023/12/23 07:15:07;;;;;;;4.23;1.50;;;1.50;91.30;;;;;;6232353;22;20176;-88
2023/12/23 07:17:43;;;;;;;4.43;1.63;;;1.50;91.90;;;;;;6228805;22;20193;-84
2023/12/23 07:23:27;;;;;;;1.97;1.27;;;1.60;91.10;;;;;;6201667;23;20253;-84
2023/12/23 07:26:04;;;;;;;5.37;1.80;;;1.70;90.70;;;;;;6198127;23;20159;-87
2023/12/23 07:28:39;;;;;;;5.77;1.20;;;1.60;91.20;;;;;;6201751;23;20212;-86
2023/12/23 07:31:12;;;;;;;2.83;1.77;;;1.70;90.90;;;;;;6201900;23;20490;-87
2023/12/23 07:33:59;;;;;;;3.27;1.60;;;1.70;90.90;;;;;;6206660;23;20185;-86
2023/12/23 07:36:29;;;;;;;5.57;1.70;;;1.70;90.70;;;;;;6170784;23;20187;-88
2023/12/23 07:39:00;;;;;;;3.67;1.57;;;1.60;90.60;;;;;;6171627;23;20167;-88
2023/12/23 07:41:29;;;;;;;3.80;1.40;;;1.70;90.90;;;;;;6201043;23;20583;-87
2023/12/23 07:43:58;;;;;;;3.63;1.50;;;1.80;91.20;;;;;;6151223;23;20204;-85
2023/12/23 07:46:29;;;;;;;4.47;1.50;;;1.70;90.80;;;;;;6186864;23;20205;-86
2023/12/23 07:48:59;;;;;;;3.00;1.83;;;1.90;90.50;;;;;;6187956;23;20489;-83
2023/12/23 07:51:29;;;;;;;4.67;2.03;;;1.80;90.60;;;;;;6184820;23;20193;-88
2023/12/23 07:54:05;;;;;;;5.37;1.70;;;1.70;90.40;;;;;;6180122;23;20427;-87
2023/12/23 07:56:35;;;;;;;2.87;1.77;;;1.70;91.10;;;;;;6184129;23;20165;-88
2023/12/23 07:59:07;;;;;;;4.90;1.90;;;1.80;90.90;;;;;;6183177;23;20165;-88
2023/12/23 08:01:49;;;;;;;5.30;1.90;;;1.70;91.40;;;;;;6196460;23;20170;-84
2023/12/23 08:04:19;;;;;;;4.50;1.63;;;1.70;91.30;;;;;;6200766;23;20382;-85
2023/12/23 08:06:48;;;;;;;3.67;1.83;;;1.80;91.10;;;;;;6182089;23;20184;-84
2023/12/23 08:09:19;;;;;;;3.20;1.60;;;1.80;91.50;;;;;;6188052;23;20168;-85
2023/12/23 08:11:51;;;;;;;5.13;1.67;;;1.80;90.80;;;;;;6197850;23;20153;-88
2023/12/23 08:14:33;;;;;;;7.63;1.93;;;2.00;91.20;;;;;;6193329;23;20577;-87
2023/12/23 08:17:11;;;;;;;2.97;1.57;;;1.90;90.50;;;;;;6204535;23;20153;-88
2023/12/23 08:19:42;;;;;;;5.40;2.00;;;1.90;90.90;;;;;;6203999;23;20195;-85
2023/12/23 08:22:10;;;;;;;6.13;1.83;;;1.90;90.20;;;;;;6202201;23;20182;-84
2023/12/23 08:24:45;;;;;;;2.67;1.53;;;1.90;90.40;;;;;;6204019;23;20259;-89
2023/12/23 08:27:40;;;;;;;4.00;1.87;;;1.90;90.60;;;;;;6200929;23;20154;-84
2023/12/23 08:30:10;;;;;;;4.07;1.90;;;1.90;90.00;;;;;;6198439;23;20178;-85
2023/12/23 08:32:40;;;;;;;4.27;1.73;;;2.00;90.40;;;;;;6197849;23;20170;-86
2023/12/23 08:35:10;;;;;;;5.53;1.87;;;2.00;90.10;;;;;;6200322;23;20416;-87
2023/12/23 08:37:38;;;;;;;5.27;1.87;;;2.00;90.60;;;;;;6203621;23;20153;-86
2023/12/23 08:40:11;;;;;;;4.77;1.77;;;2.00;90.70;;;;;;6199179;23;20181;-86
2023/12/23 08:42:55;;;;;;;7.47;2.13;;;1.90;90.20;;;;;;6199926;23;20192;-88
2023/12/23 08:45:27;;;;;;;5.07;1.93;;;2.20;90.70;;;;;;6202241;23;20262;-86
2023/12/23 08:47:58;;;;;;;6.03;2.03;;;2.20;89.80;;;;;;6168732;23;20194;-85
2023/12/23 08:50:31;;;;;;;9.20;2.17;;;2.00;90.00;;;;;;6161869;23;20614;-87
2023/12/23 08:53:06;;;;;;;3.13;1.57;;;2.10;89.50;;;;;;6194954;23;20386;-84
2023/12/23 08:56:04;;;;;;;2.17;1.57;;;1.90;90.10;;;;;;6192160;23;20178;-87
2023/12/23 08:58:33;;;;;;;2.27;1.90;;;2.00;90.70;;;;;;6197628;23;20401;-87
2023/12/23 09:01:03;;;;;;;3.17;1.50;;;2.00;92.70;;;;;;6203330;23;20180;-86
2023/12/23 09:03:47;;;;;;;5.83;1.80;;;1.90;92.00;;;;;;6203464;23;20249;-85
2023/12/23 09:06:17;;;;;;;3.30;1.80;;;1.90;92.30;;;;;;6201456;23;20183;-86
2023/12/23 09:08:57;;;;;;;2.03;1.70;;;1.80;91.20;;;;;;6216890;22;20193;-87
2023/12/23 09:11:32;;;;;;;6.60;2.33;;;1.80;91.30;;;;;;6191498;22;20205;-83
2023/12/23 09:14:01;;;;;;;4.00;2.50;;;2.00;91.00;;;;;;6226373;23;20175;-86
2023/12/23 09:16:35;;;;;;;3.43;2.00;;;2.10;90.80;;;;;;6196249;22;20182;-86
2023/12/23 09:19:06;;;;;;;4.30;1.83;;;2.10;90.50;;;;;;6234790;22;20468;-84
2023/12/23 09:21:47;;;;;;;3.10;2.00;;;2.20;91.00;;;;;;6233401;23;20231;-84
2023/12/23 09:24:19;;;;;;;2.60;1.77;;;2.30;90.20;;;;;;6230850;22;20230;-86
2023/12/23 09:27:13;;;;;;;3.23;2.00;;;2.10;90.20;;;;;;6193584;23;20242;-85
2023/12/23 09:29:47;;;;;;;2.90;1.50;;;2.30;90.50;;;;;;6192246;22;20170;-86
2023/12/23 09:32:26;;;;;;;3.80;1.70;;;2.30;90.30;;;;;;6217543;23;20271;-87
2023/12/23 09:34:57;;;;;;;6.90;2.03;;;2.40;91.30;;;;;;6182597;23;20181;-86
2023/12/23 09:37:34;;;;;;;3.30;2.03;;;2.40;90.90;;;;;;6227308;23;20181;-87
2023/12/23 09:40:06;;;;;;;3.50;1.60;;;2.30;90.40;;;;;;6196761;23;20177;-88
2023/12/23 09:42:39;;;;;;;3.50;1.97;;;2.40;90.90;;;;;;6232136;23;20380;-85
2023/12/23 09:45:09;;;;;;;4.10;1.90;;;2.40;90.30;;;;;;6228180;23;20257;-85
2023/12/23 09:47:42;;;;;;;2.20;1.70;;;2.40;90.80;;;;;;6226218;23;20182;-83
2023/12/23 09:50:13;;;;;;;4.93;2.27;;;2.40;90.70;;;;;;6224725;23;20185;-85
2023/12/23 09:52:52;;;;;;;4.63;2.10;;;2.40;91.50;;;;;;6225561;23;20228;-84
2023/12/23 09:55:27;;;;;;;4.27;1.80;;;2.30;91.90;;;;;;6214626;23;20216;-88
2023/12/23 09:57:57;;;;;;;3.30;2.03;;;2.60;91.00;;;;;;6214093;23;20157;-85
2023/12/23 10:00:29;;;;;;;2.47;1.57;;;2.50;91.60;;;;;;6210486;23;20177;-84
2023/12/23 10:02:59;;;;;;;3.20;1.60;;;2.50;91.40;;;;;;6212852;23;20969;-83
2023/12/23 10:05:42;;;;;;;3.17;1.50;;;2.30;91.30;;;;;;6212358;23;20220;-85
2023/12/23 10:08:17;;;;;;;3.73;1.97;;;2.30;91.90;;;;;;6213960;23;20181;-84
2023/12/23 10:10:54;;;;;;;6.90;2.20;;;2.30;92.70;;;;;;6183615;23;20190;-86
2023/12/23 10:13:23;;;;;;;5.33;2.17;;;2.30;92.80;;;;;;6182152;23;20293;-86
2023/12/23 10:15:58;;;;;;;5.37;1.90;;;2.40;92.30;;;;;;6187921;23;20205;-85
2023/12/23 10:18:27;;;;;;;2.30;2.10;;;2.30;92.40;;;;;;6196852;23;20563;-83
2023/12/23 10:21:07;;;;;;;3.40;2.10;;;2.50;94.00;;;;;;6189402;23;20193;-85
2023/12/23 10:23:42;;;;;;;6.00;2.57;;;2.30;95.20;;;;;;6185829;23;20166;-86
2023/12/23 10:26:14;;;;;;;5.27;3.00;;;2.20;98.00;;;;;;6186792;23;20210;-86
2023/12/23 10:28:44;;;;;;;5.07;2.30;;;2.10;99.90;;;;;;6182230;23;20430;-84
2023/12/23 10:31:18;;;;;;;5.33;2.37;;;2.00;99.90;;;;;;6185008;23;20197;-85
2023/12/23 10:33:55;;;;;;;4.00;2.40;;;1.90;99.90;;;;;;6181429;23;20265;-86
2023/12/23 10:36:32;;;;;;;5.47;2.47;;;1.50;99.90;;;;;;6182781;23;20162;-87
2023/12/23 10:39:03;;;;;;;4.47;2.30;;;1.80;99.90;;;;;;6186750;23;20220;-86
2023/12/23 10:41:40;;;;;;;5.07;2.30;;;1.90;99.90;;;;;;6183317;23;20171;-87
2023/12/23 10:44:24;;;;;;;4.93;2.67;;;1.90;99.90;;;;;;6184623;23;20253;-86
2023/12/23 10:46:55;;;;;;;6.27;2.60;;;1.90;99.90;;;;;;6148318;23;20182;-86
2023/12/23 10:49:28;;;;;;;3.40;2.27;;;1.90;99.30;;;;;;6186328;23;20163;-90
2023/12/23 10:52:02;;;;;;;1.83;1.60;;;2.10;99.70;;;;;;6149938;23;20181;-89
2023/12/23 10:54:34;;;;;;;3.47;2.67;;;2.20;95.90;;;;;;6147110;23;20519;-86
2023/12/23 10:57:10;;;;;;;5.30;2.57;;;2.30;96.90;;;;;;6187931;23;20181;-85
2023/12/23 10:59:45;;;;;;;4.37;2.20;;;2.30;95.80;;;;;;6186716;23;20178;-87
2023/12/23 11:02:15;;;;;;;2.57;2.23;;;2.30;97.40;;;;;;6185263;23;20184;-88
2023/12/23 11:04:52;;;;;;;6.20;2.60;;;2.20;99.90;;;;;;6178361;23;20221;-85
2023/12/23 11:07:30;;;;;;;4.53;2.70;;;2.10;99.90;;;;;;6183684;23;20173;-85
2023/12/23 11:10:06;;;;;;;4.57;2.73;;;2.00;99.90;;;;;;6189987;23;20190;-85
2023/12/23 11:12:35;;;;;;;6.47;2.67;;;1.90;99.90;;;;;;6188624;23;20251;-89
2023/12/23 11:15:08;;;;;;;4.50;2.70;;;2.00;99.90;;;;;;6149631;23;20177;-85
2023/12/23 11:17:41;;;;;;;4.83;2.67;;;1.70;99.90;;;;;;6186368;23;20186;-86
2023/12/23 11:20:49;;;;;;;4.80;3.00;;;1.60;99.90;;;;;;6184355;23;20165;-88
2023/12/23 11:23:36;;;;;;;7.70;3.53;;;1.40;99.90;;;;;;6154096;23;20709;-88
2023/12/23 11:26:42;;;;;;;5.50;3.13;;;1.40;99.90;;;;;;6184125;23;20192;-86
2023/12/23 11:29:15;;;;;;;2.90;2.63;;;1.50;99.90;;;;;;6185022;23;20186;-85
2023/12/23 11:31:50;;;;;;;11.83;3.30;;;1.60;99.90;;;;;;6188923;23;20644;-84
2023/12/23 11:34:36;;;;;;;3.40;3.10;;;1.70;99.90;;;;;;6192729;23;20528;-85
2023/12/23 11:37:05;;;;;;;4.90;2.93;;;1.90;99.90;;;;;;6152943;23;20174;-86
2023/12/23 11:39:37;;;;;;;4.70;2.60;;;2.00;99.90;;;;;;6190651;23;20235;-85
2023/12/23 11:42:09;;;;;;;5.63;3.13;;;2.10;99.90;;;;;;6156219;23;20186;-87
2023/12/23 11:44:51;;;;;;;7.47;2.90;;;2.40;99.90;;;;;;6201062;23;20182;-86
2023/12/23 11:47:21;;;;;;;5.07;3.13;;;2.40;99.90;;;;;;6201959;23;20178;-84
2023/12/23 11:49:50;;;;;;;5.57;2.77;;;2.50;99.90;;;;;;6185325;23;20174;-86
2023/12/23 11:52:32;;;;;;;5.70;3.70;;;2.50;99.90;;;;;;6183839;23;20163;-84
2023/12/23 11:55:05;;;;;;;4.57;3.00;;;2.50;99.90;;;;;;6185570;23;20183;-86
2023/12/23 11:57:40;;;;;;;3.67;2.87;;;2.60;99.90;;;;;;6182072;23;20193;-86
2023/12/23 12:00:38;;;;;;;8.47;3.50;;;2.60;99.90;;;;;;6181616;23;20229;-87
2023/12/23 12:03:07;;;;;;;4.20;2.23;;;2.60;99.70;;;;;;6112628;23;20250;-85
2023/12/23 12:05:39;;;;;;;6.57;2.87;;;2.70;99.90;;;;;;6181110;23;20274;-86
2023/12/23 12:08:09;;;;;;;4.17;2.47;;;2.80;98.60;;;;;;6183459;23;20770;-85
2023/12/23 12:10:39;;;;;;;5.50;2.53;;;2.90;97.90;;;;;;6182500;23;20187;-83
2023/12/23 12:13:22;;;;;;;6.37;2.97;;;3.00;96.50;;;;;;6183888;23;20183;-87
2023/12/23 12:16:00;;;;;;;4.57;2.30;;;2.80;96.30;;;;;;6158522;23;20260;-86
2023/12/23 12:18:28;;;;;;;5.83;2.57;;;2.60;98.20;;;;;;6185868;23;20622;-88
2023/12/23 12:21:00;;;;;;;4.57;2.43;;;2.40;99.30;;;;;;6184401;23;20767;-84
2023/12/23 12:23:31;;;;;;;5.60;2.53;;;2.30;98.90;;;;;;6188752;23;20165;-86
2023/12/23 12:26:01;;;;;;;5.23;2.73;;;2.20;99.90;;;;;;6204552;23;20195;-88
2023/12/23 12:28:34;;;;;;;4.77;2.60;;;2.20;99.90;;;;;;6185026;23;20194;-84
2023/12/23 12:31:23;;;;;;;6.63;2.70;;;2.40;99.90;;;;;;6182225;23;20236;-85
2023/12/23 12:34:01;;;;;;;7.43;2.90;;;2.20;99.90;;;;;;6190497;23;20159;-87
2023/12/23 12:36:39;;;;;;;4.20;2.63;;;2.40;99.90;;;;;;6200109;23;20270;-88
2023/12/23 12:39:19;;;;;;;6.90;2.77;;;2.10;99.90;;;;;;6168058;23;20173;-83
2023/12/23 12:41:53;;;;;;;5.37;2.97;;;2.10;99.90;;;;;;6201661;23;20385;-86
2023/12/23 12:44:30;;;;;;;6.70;3.10;;;2.00;99.90;;;;;;6168161;23;20182;-85
2023/12/23 12:47:29;;;;;;;7.00;3.10;;;2.00;99.90;;;;;;6199195;23;20422;-86
2023/12/23 12:50:03;;;;;;;3.27;2.70;;;1.90;99.90;;;;;;6147439;23;20185;-86
2023/12/23 12:53:06;;;;;;;7.57;3.03;;;1.80;99.90;;;;;;6189612;23;20360;-88
2023/12/23 12:55:39;;;;;;;4.30;2.63;;;1.90;99.90;;;;;;6124730;23;20758;-83
2023/12/23 12:58:24;;;;;;;5.07;2.77;;;1.80;99.90;;;;;;6194549;23;20295;-84
2023/12/23 13:00:53;;;;;;;3.93;2.47;;;1.70;99.90;;;;;;6190577;23;20181;-83
2023/12/23 13:03:22;;;;;;;4.20;2.83;;;1.60;99.90;;;;;;6193701;23;20181;-83
2023/12/23 13:05:55;;;;;;;6.60;3.00;;;1.60;99.90;;;;;;6190989;23;20586;-85
2023/12/23 13:08:28;;;;;;;4.50;2.77;;;1.70;99.90;;;;;;6182913;23;20173;-84
2023/12/23 13:10:58;;;;;;;4.37;3.00;;;1.60;98.40;;;;;;6184638;23;21024;-86
2023/12/23 13:13:29;;;;;;;2.83;2.10;;;1.50;97.90;;;;;;6182590;23;20248;-86
2023/12/23 13:16:03;;;;;;;4.57;2.53;;;1.60;92.30;;;;;;6179840;23;20170;-85
2023/12/23 13:18:32;;;;;;;3.30;2.00;;;1.70;91.80;;;;;;6180973;23;20182;-84
2023/12/23 13:21:28;;;;;;;4.03;2.23;;;1.70;90.20;;;;;;6182514;23;20185;-87
2023/12/23 13:24:01;;;;;;;4.27;2.30;;;1.80;89.60;;;;;;6180324;23;20187;-85
2023/12/23 13:26:44;;;;;;;5.23;2.30;;;1.80;89.90;;;;;;6181692;23;20197;-86
2023/12/23 13:29:30;;;;;;;4.50;2.33;;;1.70;90.20;;;;;;6179373;23;20488;-85
2023/12/23 13:31:59;;;;;;;7.97;2.60;;;1.80;90.80;;;;;;6145604;23;20181;-90
2023/12/23 13:34:49;;;;;;;6.40;2.73;;;1.60;91.90;;;;;;6187462;23;20166;-84
2023/12/23 13:37:20;;;;;;;2.97;2.10;;;1.60;92.10;;;;;;6187262;23;20167;-86
2023/12/23 13:39:51;;;;;;;3.70;2.33;;;1.50;91.50;;;;;;6148928;23;20208;-85